Time;durP1;ratioP1;P1;durP2;ratioP2;P2;SDS_P1;SDS_P2;PMS_P1;PMS_P2;Temp;Humidity;BMP_temperature;BMP_pressure;BME280_temperature;BME280_humidity;BME280_pressure;Samples;Min_cycle;Max_cycle;Signal;HPM_P1;HPM_P2
2024/01/22 00:01:00;;;;;;;2.70;1.80;;;;;;;-3.40;100.00;102374.67;104494;1256;73936;-55
2024/01/22 00:03:27;;;;;;;2.60;1.50;;;;;;;-3.42;100.00;102378.28;105071;1258;66286;-54
2024/01/22 00:05:55;;;;;;;3.40;1.80;;;;;;;-3.44;100.00;102376.98;104753;1262;71477;-54
2024/01/22 00:08:22;;;;;;;2.30;1.20;;;;;;;-3.45;100.00;102371.45;104526;1262;60600;-55
2024/01/22 00:10:49;;;;;;;2.90;1.30;;;;;;;-3.46;100.00;102371.23;104562;1257;60454;-55
2024/01/22 00:13:17;;;;;;;3.40;1.70;;;;;;;-3.46;100.00;102370.54;104859;1257;72931;-54
2024/01/22 00:15:44;;;;;;;1.90;1.10;;;;;;;-3.45;100.00;102366.92;104525;1256;65120;-54
2024/01/22 00:18:11;;;;;;;3.40;1.20;;;;;;;-3.42;100.00;102361.09;104763;1257;72680;-55
2024/01/22 00:20:40;;;;;;;2.30;1.00;;;;;;;-3.38;100.00;102362.34;104522;1261;60470;-55
2024/01/22 00:23:07;;;;;;;2.40;1.20;;;;;;;-3.32;100.00;102367.16;105175;1263;60413;-55
2024/01/22 00:25:34;;;;;;;3.20;1.30;;;;;;;-3.31;100.00;102359.52;104709;1262;73755;-55
2024/01/22 00:28:02;;;;;;;2.40;1.20;;;;;;;-3.29;100.00;102358.21;104857;1262;67424;-54
2024/01/22 00:30:29;;;;;;;2.40;1.30;;;;;;;-3.28;100.00;102358.79;104583;1257;72908;-54
2024/01/22 00:32:56;;;;;;;3.40;1.30;;;;;;;-3.30;100.00;102362.20;104536;1258;60585;-54
2024/01/22 00:35:24;;;;;;;2.80;1.60;;;;;;;-3.30;100.00;102368.35;104729;1263;60559;-52
2024/01/22 00:37:51;;;;;;;3.10;1.60;;;;;;;-3.32;100.00;102375.12;104653;1261;72478;-53
2024/01/22 00:40:19;;;;;;;2.20;1.10;;;;;;;-3.34;100.00;102370.62;104640;1263;67400;-54
2024/01/22 00:42:46;;;;;;;2.80;1.40;;;;;;;-3.36;100.00;102370.34;104593;1257;72746;-55
2024/01/22 00:45:13;;;;;;;3.00;1.40;;;;;;;-3.37;100.00;102372.53;104596;1258;60665;-54
2024/01/22 00:47:41;;;;;;;2.90;1.30;;;;;;;-3.40;100.00;102376.98;104758;1263;60544;-53
2024/01/22 00:50:09;;;;;;;2.90;1.40;;;;;;;-3.43;100.00;102371.04;104482;1259;74323;-54
2024/01/22 00:52:36;;;;;;;3.50;1.70;;;;;;;-3.45;100.00;102370.41;104469;1262;64648;-53
2024/01/22 00:55:03;;;;;;;4.90;1.90;;;;;;;-3.47;100.00;102371.70;104632;1259;75034;-54
2024/01/22 00:57:31;;;;;;;4.10;1.80;;;;;;;-3.49;100.00;102369.52;104406;1259;60550;-54
2024/01/22 00:59:58;;;;;;;2.90;1.70;;;;;;;-3.50;100.00;102369.83;104426;1260;60556;-54
2024/01/22 01:02:25;;;;;;;2.30;1.40;;;;;;;-3.52;100.00;102367.09;104488;1264;74310;-54
2024/01/22 01:04:53;;;;;;;3.40;1.40;;;;;;;-3.55;100.00;102362.89;104657;1261;65989;-53
2024/01/22 01:07:20;;;;;;;3.30;1.60;;;;;;;-3.57;100.00;102355.39;104541;1262;71069;-54
2024/01/22 01:09:48;;;;;;;2.40;1.30;;;;;;;-3.60;100.00;102355.81;104708;1262;60582;-54
2024/01/22 01:12:15;;;;;;;3.80;1.40;;;;;;;-3.63;100.00;102354.08;104603;1258;60460;-53
2024/01/22 01:14:42;;;;;;;4.10;1.70;;;;;;;-3.67;100.00;102354.77;104549;1258;72653;-53
2024/01/22 01:17:10;;;;;;;4.20;1.80;;;;;;;-3.69;100.00;102360.77;104749;1262;67091;-54
2024/01/22 01:19:39;;;;;;;3.40;1.30;;;;;;;-3.71;100.00;102364.18;104529;1260;72108;-54
2024/01/22 01:22:07;;;;;;;3.40;1.20;;;;;;;-3.69;100.00;102364.45;104979;1260;60497;-55
2024/01/22 01:24:34;;;;;;;2.80;1.20;;;;;;;-3.67;100.00;102370.39;104469;1259;60546;-54
2024/01/22 01:27:01;;;;;;;4.20;1.30;;;;;;;-3.63;100.00;102375.13;104416;1258;73099;-54
2024/01/22 01:29:29;;;;;;;3.50;1.90;;;;;;;-3.58;100.00;102377.64;108558;1259;67032;-55
2024/01/22 01:31:56;;;;;;;5.80;2.30;;;;;;;-3.55;100.00;102377.26;108648;1258;70579;-55
2024/01/22 01:34:23;;;;;;;4.40;1.50;;;;;;;-3.53;100.00;102381.77;107794;1259;60691;-55
2024/01/22 01:36:51;;;;;;;4.30;2.60;;;;;;;-3.51;100.00;102381.38;108660;1259;58872;-54
2024/01/22 01:39:18;;;;;;;3.40;1.40;;;;;;;-3.49;100.00;102387.26;108802;1257;74342;-55
2024/01/22 01:41:49;;;;;;;2.40;1.40;;;;;;;-3.48;100.00;102392.20;106881;1257;65721;-54
2024/01/22 01:44:16;;;;;;;2.10;1.30;;;;;;;-3.51;100.00;102385.39;104775;1262;71501;-55
2024/01/22 01:46:43;;;;;;;1.90;1.30;;;;;;;-3.53;100.00;102383.73;104551;1257;62349;-54
2024/01/22 01:49:10;;;;;;;3.40;1.30;;;;;;;-3.53;100.00;102373.69;104646;1257;60448;-54
2024/01/22 01:51:38;;;;;;;2.90;1.60;;;;;;;-3.53;100.00;102365.80;104607;1257;72684;-54
2024/01/22 01:54:06;;;;;;;2.60;1.40;;;;;;;-3.55;100.00;102359.06;104611;1262;66937;-54
2024/01/22 01:56:33;;;;;;;3.00;1.60;;;;;;;-3.55;100.00;102359.73;106226;1257;71687;-53
2024/01/22 01:59:01;;;;;;;4.20;1.70;;;;;;;-3.57;100.00;102347.85;104432;1262;60448;-55
2024/01/22 02:01:28;;;;;;;2.30;1.20;;;;;;;-3.59;100.00;102345.14;107592;1259;58797;-54
2024/01/22 02:03:56;;;;;;;2.80;1.60;;;;;;;-3.62;100.00;102347.64;104634;1258;73802;-54
2024/01/22 02:06:23;;;;;;;4.40;1.80;;;;;;;-3.65;100.00;102342.21;104675;1262;65638;-53
2024/01/22 02:08:51;;;;;;;4.50;1.50;;;;;;;-3.66;100.00;102345.67;104622;1260;71465;-54
2024/01/22 02:11:20;;;;;;;3.10;1.50;;;;;;;-3.68;100.00;102344.52;104769;1257;60472;-54
2024/01/22 02:13:48;;;;;;;2.40;1.30;;;;;;;-3.68;100.00;102347.13;105334;1258;60643;-55
2024/01/22 02:16:15;;;;;;;3.90;1.50;;;;;;;-3.68;100.00;102352.02;104810;1258;73788;-55
2024/01/22 02:18:43;;;;;;;3.30;1.40;;;;;;;-3.69;100.00;102359.71;104796;1263;67967;-54
2024/01/22 02:21:10;;;;;;;3.20;0.90;;;;;;;-3.69;100.00;102369.39;104686;1262;71964;-54
2024/01/22 02:23:37;;;;;;;7.30;1.80;;;;;;;-3.68;100.00;102376.63;104682;1260;61403;-54
2024/01/22 02:26:05;;;;;;;4.60;1.70;;;;;;;-3.66;100.00;102376.21;104797;1259;60540;-54
2024/01/22 02:28:32;;;;;;;3.30;1.30;;;;;;;-3.62;100.00;102379.05;104784;1257;72339;-53
2024/01/22 02:31:01;;;;;;;2.50;1.60;;;;;;;-3.56;100.00;102375.64;104878;1260;67895;-54
2024/01/22 02:33:28;;;;;;;4.50;1.40;;;;;;;-3.52;100.00;102375.52;104946;1257;73175;-54
2024/01/22 02:35:56;;;;;;;6.50;2.40;;;;;;;-3.48;100.00;102376.78;104751;1262;61241;-54
2024/01/22 02:38:24;;;;;;;2.70;1.30;;;;;;;-3.44;100.00;102373.96;104833;1262;163808;-54
2024/01/22 02:43:15;;;;;;;5.00;2.60;;;;;;;-3.40;100.00;102418.77;102134;1292;599551;-55
2024/01/22 02:45:43;;;;;;;6.60;3.20;;;;;;;-3.43;100.00;102417.05;104861;1254;59887;-54
2024/01/22 02:48:10;;;;;;;7.30;3.20;;;;;;;-3.44;100.00;102421.38;104994;1254;59317;-55
2024/01/22 02:50:37;;;;;;;4.30;2.40;;;;;;;-3.47;100.00;102414.70;104874;1257;71447;-54
2024/01/22 02:53:05;;;;;;;6.10;3.10;;;;;;;-3.50;100.00;102413.87;105076;1254;68345;-53
2024/01/22 02:55:32;;;;;;;7.20;2.90;;;;;;;-3.53;100.00;102412.30;104912;1259;71469;-55
2024/01/22 02:58:00;;;;;;;8.70;2.90;;;;;;;-3.55;100.00;102410.25;104928;1257;159087;-55
2024/01/22 03:00:27;;;;;;;4.40;2.20;;;;;;;-3.57;100.00;102407.01;105194;1254;60156;-55
2024/01/22 03:02:55;;;;;;;11.10;3.60;;;;;;;-3.60;100.00;102415.11;108883;1253;70901;-54
2024/01/22 03:05:23;;;;;;;7.70;3.00;;;;;;;-3.62;100.00;102417.13;109117;1253;67226;-55
2024/01/22 03:07:50;;;;;;;6.60;3.20;;;;;;;-3.63;100.00;102412.67;109127;1254;71377;-56
2024/01/22 03:10:17;;;;;;;8.40;2.50;;;;;;;-3.63;100.00;102405.81;109091;1254;61639;-55
2024/01/22 03:12:45;;;;;;;5.50;2.50;;;;;;;-3.62;100.00;102402.35;109109;1254;58284;-54
2024/01/22 03:15:13;;;;;;;4.20;1.60;;;;;;;-3.62;100.00;102393.45;109124;1253;73302;-55
2024/01/22 03:17:41;;;;;;;5.70;2.30;;;;;;;-3.60;100.00;102384.41;107875;1254;65700;-55
2024/01/22 03:20:09;;;;;;;7.00;2.10;;;;;;;-3.57;100.00;102383.50;105018;1259;72864;-56
2024/01/22 03:22:37;;;;;;;6.30;2.00;;;;;;;-3.54;100.00;102384.89;105322;1255;59730;-55
2024/01/22 03:25:05;;;;;;;6.90;2.60;;;;;;;-3.51;100.00;102387.00;105087;1254;60046;-54
2024/01/22 03:27:32;;;;;;;8.10;2.90;;;;;;;-3.49;100.00;102388.67;105193;1254;71890;-55
2024/01/22 03:30:00;;;;;;;7.10;2.40;;;;;;;-3.48;100.00;102389.40;105086;1254;65643;-53
2024/01/22 03:32:27;;;;;;;4.10;2.50;;;;;;;-3.48;100.00;102391.67;105041;1252;72412;-53
2024/01/22 03:34:55;;;;;;;5.50;2.20;;;;;;;-3.50;100.00;102386.18;105616;1253;59784;-55
2024/01/22 03:37:22;;;;;;;2.90;1.60;;;;;;;-3.51;100.00;102386.44;104955;1259;59817;-53
2024/01/22 03:39:50;;;;;;;7.60;2.90;;;;;;;-3.54;100.00;102386.66;105151;1258;73185;-54
2024/01/22 03:42:17;;;;;;;5.70;3.10;;;;;;;-3.57;100.00;102381.22;104923;1260;65806;-53
2024/01/22 03:44:45;;;;;;;5.10;2.50;;;;;;;-3.59;100.00;102380.96;104946;1254;72502;-53
2024/01/22 03:47:12;;;;;;;4.50;2.80;;;;;;;-3.62;100.00;102377.30;104900;1254;59707;-53
2024/01/22 03:49:39;;;;;;;3.00;2.00;;;;;;;-3.65;100.00;102375.20;104757;1254;59618;-54
2024/01/22 03:52:07;;;;;;;7.20;2.30;;;;;;;-3.68;100.00;102374.37;104903;1263;73086;-53
2024/01/22 03:54:34;;;;;;;4.90;1.80;;;;;;;-3.68;100.00;102380.11;104914;1254;65624;-54
2024/01/22 03:57:06;;;;;;;4.00;2.30;;;;;;;-3.68;100.00;102382.92;104931;1259;71244;-53
2024/01/22 03:59:35;;;;;;;4.00;2.50;;;;;;;-3.70;100.00;102387.92;104860;1260;59618;-53
2024/01/22 04:02:03;;;;;;;7.20;2.80;;;;;;;-3.70;100.00;102385.09;109038;1259;60271;-55
2024/01/22 04:04:31;;;;;;;6.00;2.00;;;;;;;-3.70;100.00;102383.02;109066;1254;73299;-54
2024/01/22 04:06:58;;;;;;;4.50;1.80;;;;;;;-3.68;100.00;102379.98;109046;1254;64953;-54
2024/01/22 04:09:25;;;;;;;4.00;2.30;;;;;;;-3.67;100.00;102380.92;104989;1259;73664;-53
2024/01/22 04:11:53;;;;;;;2.80;2.00;;;;;;;-3.66;100.00;102382.88;104915;1259;61065;-53
2024/01/22 04:14:20;;;;;;;6.20;2.40;;;;;;;-3.65;100.00;102384.11;104868;1260;60073;-55
2024/01/22 04:16:48;;;;;;;4.40;2.90;;;;;;;-3.65;100.00;102391.49;104969;1254;71799;-55
2024/01/22 04:19:15;;;;;;;5.50;2.80;;;;;;;-3.66;100.00;102392.02;104927;1260;67269;-55
2024/01/22 04:21:46;;;;;;;5.70;2.90;;;;;;;-3.66;100.00;102396.55;104929;1259;73392;-55
2024/01/22 04:24:14;;;;;;;3.40;2.10;;;;;;;-3.66;100.00;102396.91;106038;1259;60395;-53
2024/01/22 04:26:41;;;;;;;7.50;2.70;;;;;;;-3.66;100.00;102397.23;104868;1259;59730;-54
2024/01/22 04:29:08;;;;;;;4.20;2.80;;;;;;;-3.67;100.00;102390.17;104863;1260;71866;-53
2024/01/22 04:31:36;;;;;;;4.70;2.80;;;;;;;-3.67;100.00;102387.73;104957;1254;66745;-56
2024/01/22 04:34:04;;;;;;;4.70;2.30;;;;;;;-3.66;100.00;102386.38;104827;1258;71757;-54
2024/01/22 04:36:31;;;;;;;4.40;2.30;;;;;;;-3.65;100.00;102385.73;105944;1257;59717;-54
2024/01/22 04:38:59;;;;;;;5.10;2.90;;;;;;;-3.62;100.00;102384.63;105221;1260;59837;-56
2024/01/22 04:41:26;;;;;;;4.50;2.60;;;;;;;-3.60;100.00;102381.25;104779;1254;71773;-54
2024/01/22 04:43:53;;;;;;;8.00;3.30;;;;;;;-3.57;100.00;102373.32;105063;1257;67083;-54
2024/01/22 04:46:21;;;;;;;7.40;3.20;;;;;;;-3.55;100.00;102370.44;104992;1257;73088;-53
2024/01/22 04:48:48;;;;;;;5.30;2.90;;;;;;;-3.54;100.00;102361.52;104942;1260;59646;-55
2024/01/22 04:51:16;;;;;;;3.70;2.80;;;;;;;-3.55;100.00;102362.52;105488;1256;60078;-54
2024/01/22 04:53:43;;;;;;;6.00;3.40;;;;;;;-3.57;100.00;102361.20;105014;1258;73152;-53
2024/01/22 04:56:11;;;;;;;6.40;4.20;;;;;;;-3.59;100.00;102359.53;105127;1255;66759;-54
2024/01/22 04:58:38;;;;;;;6.90;4.00;;;;;;;-3.61;100.00;102355.75;106724;1259;71382;-54
2024/01/22 05:01:05;;;;;;;8.40;3.90;;;;;;;-3.64;100.00;102351.20;104957;1260;60523;-53
2024/01/22 05:03:32;;;;;;;7.00;3.00;;;;;;;-3.66;100.00;102352.16;104840;1257;59762;-53
2024/01/22 05:06:00;;;;;;;5.60;3.40;;;;;;;-3.66;100.00;102357.95;105000;1254;71814;-55
2024/01/22 05:08:28;;;;;;;4.40;3.80;;;;;;;-3.65;100.00;102351.69;104838;1257;65990;-53
2024/01/22 05:10:55;;;;;;;6.60;3.60;;;;;;;-3.63;100.00;102347.04;104889;1255;72779;-52
2024/01/22 05:13:23;;;;;;;8.70;4.70;;;;;;;-3.63;100.00;102348.63;105076;1258;59720;-52
2024/01/22 05:15:50;;;;;;;8.60;4.00;;;;;;;-3.62;100.00;102348.48;105015;1259;59650;-52
2024/01/22 05:18:18;;;;;;;6.30;3.90;;;;;;;-3.62;100.00;102350.80;105102;1260;75197;-51
2024/01/22 05:20:49;;;;;;;8.10;4.70;;;;;;;-3.63;100.00;102351.27;105128;1257;65728;-53
2024/01/22 05:23:16;;;;;;;7.30;4.30;;;;;;;-3.65;100.00;102348.17;105057;1254;71479;-56
2024/01/22 05:25:43;;;;;;;9.00;4.30;;;;;;;-3.67;100.00;102349.50;105193;1257;60085;-55
2024/01/22 05:28:11;;;;;;;8.20;5.10;;;;;;;-3.68;100.00;102344.30;105090;1257;61315;-55
2024/01/22 05:30:38;;;;;;;8.80;4.90;;;;;;;-3.70;100.00;102349.85;105179;1260;73987;-53
2024/01/22 05:33:06;;;;;;;7.40;3.80;;;;;;;-3.70;100.00;102351.40;105199;1257;66889;-55
2024/01/22 05:35:33;;;;;;;7.20;4.70;;;;;;;-3.69;100.00;102347.05;105089;1259;72904;-53
2024/01/22 05:38:01;;;;;;;7.90;4.40;;;;;;;-3.68;100.00;102345.04;105130;1256;59694;-54
2024/01/22 05:40:28;;;;;;;8.80;5.50;;;;;;;-3.67;100.00;102347.22;104808;1254;60058;-56
2024/01/22 05:42:55;;;;;;;9.20;6.40;;;;;;;-3.65;100.00;102344.13;104893;1257;73019;-54
2024/01/22 05:45:23;;;;;;;10.20;6.30;;;;;;;-3.65;100.00;102345.01;104852;1257;67685;-54
2024/01/22 05:47:51;;;;;;;9.70;6.50;;;;;;;-3.65;100.00;102344.46;109142;1253;73281;-55
2024/01/22 05:50:19;;;;;;;9.80;6.80;;;;;;;-3.66;100.00;102346.90;108493;1254;59224;-54
2024/01/22 05:52:46;;;;;;;10.40;6.00;;;;;;;-3.66;100.00;102346.38;104992;1255;60237;-53
2024/01/22 05:55:13;;;;;;;8.70;5.60;;;;;;;-3.66;100.00;102342.67;105102;1257;73068;-55
2024/01/22 05:57:47;;;;;;;9.80;5.40;;;;;;;-3.66;100.00;102338.66;105537;1253;66896;-54
2024/01/22 06:00:14;;;;;;;10.10;5.30;;;;;;;-3.65;100.00;102335.16;105003;1259;72676;-55
2024/01/22 06:02:42;;;;;;;11.80;4.90;;;;;;;-3.64;100.00;102333.65;105153;1253;59708;-55
2024/01/22 06:05:10;;;;;;;8.50;4.50;;;;;;;-3.61;100.00;102323.80;105627;1257;64450;-55
2024/01/22 06:07:38;;;;;;;8.90;5.00;;;;;;;-3.59;100.00;102323.91;105153;1257;75279;-55
2024/01/22 06:10:06;;;;;;;12.70;5.70;;;;;;;-3.56;100.00;102323.15;105313;1264;66839;-55
2024/01/22 06:12:35;;;;;;;10.40;5.70;;;;;;;-3.54;100.00;102314.69;105770;1256;70430;-55
2024/01/22 06:15:06;;;;;;;10.60;5.90;;;;;;;-3.51;100.00;102306.58;105201;1254;59928;-55
2024/01/22 06:17:33;;;;;;;10.40;6.60;;;;;;;-3.50;100.00;102306.27;105356;1261;59624;-55
2024/01/22 06:20:01;;;;;;;10.00;6.90;;;;;;;-3.50;100.00;102300.33;105202;1257;73049;-54
2024/01/22 06:22:29;;;;;;;10.70;6.20;;;;;;;-3.50;100.00;102297.52;105866;1257;65028;-54
2024/01/22 06:24:56;;;;;;;14.10;6.40;;;;;;;-3.50;100.00;102305.06;105433;1257;73174;-57
2024/01/22 06:27:23;;;;;;;9.80;6.30;;;;;;;-3.50;100.00;102304.70;105088;1261;60335;-56
2024/01/22 06:29:53;;;;;;;9.60;5.80;;;;;;;-3.51;100.00;102295.69;105251;1264;61093;-55
2024/01/22 06:32:20;;;;;;;9.60;5.90;;;;;;;-3.52;100.00;102294.23;105490;1257;72959;-54
2024/01/22 06:34:48;;;;;;;10.90;6.30;;;;;;;-3.52;100.00;102298.61;105324;1266;66913;-54
2024/01/22 06:37:15;;;;;;;9.40;5.20;;;;;;;-3.51;100.00;102305.88;105590;1258;72679;-53
2024/01/22 06:39:43;;;;;;;7.80;4.80;;;;;;;-3.50;100.00;102313.83;105304;1262;61786;-54
2024/01/22 06:42:10;;;;;;;6.30;3.90;;;;;;;-3.48;100.00;102319.35;106525;1254;59981;-54
2024/01/22 06:44:53;;;;;;;8.30;4.10;;;;;;;-3.45;100.00;102320.56;105155;1260;73186;-54
2024/01/22 06:47:20;;;;;;;7.90;4.70;;;;;;;-3.41;100.00;102320.05;105162;1254;67531;-54
2024/01/22 06:49:47;;;;;;;7.80;4.50;;;;;;;-3.38;100.00;102321.08;105355;1257;72718;-54
2024/01/22 06:52:15;;;;;;;9.60;5.70;;;;;;;-3.35;100.00;102316.48;105358;1257;61200;-53
2024/01/22 06:54:42;;;;;;;8.00;4.20;;;;;;;-3.32;100.00;102313.81;105150;1254;60552;-52
2024/01/22 06:57:10;;;;;;;6.70;4.90;;;;;;;-3.32;100.00;102306.65;105243;1257;74303;-54
2024/01/22 06:59:37;;;;;;;8.50;5.00;;;;;;;-3.32;100.00;102309.29;105119;1257;66839;-55
2024/01/22 07:02:04;;;;;;;9.40;6.30;;;;;;;-3.32;100.00;102318.77;105235;1257;72693;-55
2024/01/22 07:04:32;;;;;;;7.20;4.40;;;;;;;-3.32;100.00;102328.04;104999;1254;60430;-56
2024/01/22 07:06:59;;;;;;;7.70;4.30;;;;;;;-3.31;100.00;102330.35;108775;1254;60720;-54
2024/01/22 07:09:28;;;;;;;6.20;3.20;;;;;;;-3.30;100.00;102332.00;105131;1252;74353;-55
2024/01/22 07:11:55;;;;;;;7.20;4.50;;;;;;;-3.28;100.00;102344.40;105164;1259;66730;-54
2024/01/22 07:14:23;;;;;;;7.50;4.70;;;;;;;-3.26;100.00;102344.30;105204;1256;70596;-53
2024/01/22 07:16:50;;;;;;;8.80;5.40;;;;;;;-3.24;100.00;102342.31;105120;1255;60434;-54
2024/01/22 07:19:18;;;;;;;11.40;4.80;;;;;;;-3.22;100.00;102343.30;105178;1258;60616;-53
2024/01/22 07:21:46;;;;;;;7.20;5.00;;;;;;;-3.20;100.00;102345.84;105178;1254;73864;-55
2024/01/22 07:24:14;;;;;;;8.00;5.40;;;;;;;-3.18;100.00;102346.10;106172;1257;67240;-53
2024/01/22 07:26:42;;;;;;;9.30;5.50;;;;;;;-3.17;100.00;102344.23;105451;1257;72676;-56
2024/01/22 07:29:09;;;;;;;9.50;6.60;;;;;;;-3.15;100.00;102346.96;106198;1254;61900;-55
2024/01/22 07:31:36;;;;;;;10.20;6.70;;;;;;;-3.14;100.00;102338.58;105261;1256;61109;-54
2024/01/22 07:34:05;;;;;;;9.60;5.60;;;;;;;-3.12;100.00;102342.36;104980;1257;74410;-53
2024/01/22 07:36:33;;;;;;;12.40;7.30;;;;;;;-3.10;100.00;102347.94;105265;1254;67149;-53
2024/01/22 07:39:00;;;;;;;11.40;6.70;;;;;;;-3.07;100.00;102355.98;106310;1259;72777;-54
2024/01/22 07:41:27;;;;;;;10.00;5.40;;;;;;;-3.04;100.00;102357.00;105149;1257;60494;-53
2024/01/22 07:43:55;;;;;;;11.40;7.10;;;;;;;-2.98;100.00;102347.05;105021;1258;60417;-53
2024/01/22 07:46:22;;;;;;;15.00;9.50;;;;;;;-2.93;100.00;102343.08;104992;1259;71577;-54
2024/01/22 07:48:49;;;;;;;11.10;7.00;;;;;;;-2.89;100.00;102350.15;105012;1253;65801;-54
2024/01/22 07:51:17;;;;;;;8.90;5.50;;;;;;;-2.85;100.00;102359.98;104983;1258;71631;-54
2024/01/22 07:53:44;;;;;;;8.10;5.10;;;;;;;-2.81;100.00;102362.11;105374;1253;60507;-54
2024/01/22 07:56:12;;;;;;;5.30;3.90;;;;;;;-2.80;100.00;102354.78;105257;1252;60529;-54
2024/01/22 07:58:39;;;;;;;7.60;4.10;;;;;;;-2.80;100.00;102352.83;105078;1257;72794;-55
2024/01/22 08:01:07;;;;;;;5.40;3.50;;;;;;;-2.82;100.00;102348.94;105145;1257;66169;-54
2024/01/22 08:03:34;;;;;;;11.00;4.80;;;;;;;-2.82;100.00;102355.92;105176;1254;72419;-54
2024/01/22 08:06:02;;;;;;;4.90;3.40;;;;;;;-2.83;100.00;102359.40;105915;1254;63653;-51
2024/01/22 08:08:29;;;;;;;7.40;4.60;;;;;;;-2.83;100.00;102362.58;105221;1254;60307;-53
2024/01/22 08:10:57;;;;;;;6.50;4.10;;;;;;;-2.81;100.00;102353.52;105291;1254;74395;-54
2024/01/22 08:13:24;;;;;;;8.30;4.50;;;;;;;-2.80;100.00;102350.94;105399;1253;64852;-54
2024/01/22 08:15:52;;;;;;;7.30;4.30;;;;;;;-2.78;100.00;102358.20;105257;1257;72738;-54
2024/01/22 08:18:19;;;;;;;7.20;4.20;;;;;;;-2.78;100.00;102361.21;105140;1257;60609;-55
2024/01/22 08:20:47;;;;;;;6.50;4.80;;;;;;;-2.76;100.00;102353.20;105073;1257;60546;-53
2024/01/22 08:23:15;;;;;;;6.50;4.70;;;;;;;-2.76;100.00;102347.11;105278;1255;71398;-55
2024/01/22 08:25:42;;;;;;;6.10;4.90;;;;;;;-2.74;100.00;102352.98;104993;1254;65980;-55
2024/01/22 08:28:10;;;;;;;10.60;6.40;;;;;;;-2.73;100.00;102356.73;104931;1260;71428;-53
2024/01/22 08:30:38;;;;;;;10.40;6.30;;;;;;;-2.73;100.00;102355.10;104907;1261;61048;-55
2024/01/22 08:33:05;;;;;;;6.90;4.20;;;;;;;-2.75;100.00;102352.06;105085;1256;59346;-53
2024/01/22 08:35:34;;;;;;;7.00;5.20;;;;;;;-2.74;100.00;102349.98;105109;1256;73913;-55
2024/01/22 08:38:01;;;;;;;16.60;10.50;;;;;;;-2.73;100.00;102345.29;106117;1256;68998;-53
2024/01/22 08:40:29;;;;;;;11.80;6.40;;;;;;;-2.72;100.00;102342.34;105152;1257;72593;-53
2024/01/22 08:42:57;;;;;;;74.90;43.10;;;;;;;-2.68;100.00;102338.84;105771;1256;60479;-54
2024/01/22 08:45:24;;;;;;;57.80;33.10;;;;;;;-2.64;100.00;102339.17;105322;1256;62414;-54
2024/01/22 08:47:52;;;;;;;114.90;60.30;;;;;;;-2.62;100.00;102336.30;105229;1251;73904;-54
2024/01/22 08:50:23;;;;;;;63.70;36.70;;;;;;;-2.60;100.00;102331.98;105696;1254;67347;-56
2024/01/22 08:52:52;;;;;;;57.80;31.70;;;;;;;-2.59;100.00;102321.28;105074;1254;73064;-53
2024/01/22 08:55:22;;;;;;;21.60;13.80;;;;;;;-2.61;100.00;102313.65;105124;1254;60700;-53
2024/01/22 08:57:53;;;;;;;22.00;13.90;;;;;;;-2.61;100.00;102313.65;105151;1260;62243;-55
2024/01/22 09:00:21;;;;;;;24.50;14.60;;;;;;;-2.59;100.00;102311.12;105327;1253;76462;-53
2024/01/22 09:02:49;;;;;;;16.00;10.00;;;;;;;-2.55;100.00;102295.66;105295;1255;66101;-54
2024/01/22 09:08:48;;;;;;;9.70;7.80;;;;;;;-2.48;100.00;102284.73;105267;1256;60428;-54
2024/01/22 09:11:15;;;;;;;13.40;9.00;;;;;;;-2.45;100.00;102279.91;105006;1253;60341;-55
2024/01/22 09:13:43;;;;;;;12.50;9.00;;;;;;;-2.42;100.00;102278.98;104938;1254;73598;-56
2024/01/22 09:16:14;;;;;;;20.70;11.60;;;;;;;-2.42;100.00;102269.16;105233;1257;66924;-53
2024/01/22 09:18:42;;;;;;;12.90;8.10;;;;;;;-2.42;100.00;102263.90;105303;1253;71779;-56
2024/01/22 09:21:11;;;;;;;15.20;8.60;;;;;;;-2.43;100.00;102256.47;105168;1257;60521;-55
2024/01/22 09:23:38;;;;;;;11.40;7.70;;;;;;;-2.44;100.00;102250.42;105028;1254;61112;-55
2024/01/22 09:26:07;;;;;;;31.20;18.80;;;;;;;-2.46;100.00;102244.17;105790;1254;73792;-53
2024/01/22 09:28:34;;;;;;;25.80;15.10;;;;;;;-2.48;100.00;102236.38;105127;1251;66757;-54
2024/01/22 09:31:01;;;;;;;10.60;6.40;;;;;;;-2.47;100.00;102235.70;104899;1254;71586;-55
2024/01/22 09:33:29;;;;;;;18.00;9.50;;;;;;;-2.48;100.00;102230.96;105055;1257;60440;-55
2024/01/22 09:35:57;;;;;;;23.00;13.30;;;;;;;-2.50;100.00;102230.85;104923;1256;60408;-55
2024/01/22 09:38:24;;;;;;;16.00;10.90;;;;;;;-2.49;100.00;102230.19;105026;1252;76031;-53
2024/01/22 09:40:52;;;;;;;10.70;7.10;;;;;;;-2.47;100.00;102230.80;109051;1253;65950;-54
2024/01/22 09:43:19;;;;;;;7.00;5.10;;;;;;;-2.45;100.00;102230.88;109185;1252;71908;-55
2024/01/22 09:45:47;;;;;;;7.60;4.80;;;;;;;-2.44;100.00;102222.30;107241;1254;59448;-53
2024/01/22 09:48:15;;;;;;;9.00;6.10;;;;;;;-2.45;100.00;102213.46;105067;1254;60571;-53
2024/01/22 09:50:42;;;;;;;8.20;4.00;;;;;;;-2.46;100.00;102203.77;109040;1253;73825;-54
2024/01/22 09:53:10;;;;;;;8.60;4.90;;;;;;;-2.46;100.00;102193.91;109168;1253;66153;-55
2024/01/22 09:55:39;;;;;;;5.30;2.90;;;;;;;-2.45;100.00;102196.39;109266;1254;73117;-54
2024/01/22 09:58:09;;;;;;;5.40;4.00;;;;;;;-2.44;100.00;102189.41;109137;1253;59331;-55
2024/01/22 10:00:37;;;;;;;5.80;3.90;;;;;;;-2.43;100.00;102190.36;109261;1254;60943;-54
2024/01/22 10:03:05;;;;;;;8.30;4.50;;;;;;;-2.40;100.00;102189.45;109207;1253;73900;-54
2024/01/22 10:05:33;;;;;;;6.20;4.00;;;;;;;-2.37;100.00;102196.56;105091;1253;65247;-52
2024/01/22 10:08:01;;;;;;;5.30;3.90;;;;;;;-2.35;100.00;102194.41;105049;1254;71687;-53
2024/01/22 10:10:28;;;;;;;48.10;27.70;;;;;;;-2.31;100.00;102191.42;107434;1256;60256;-54
2024/01/22 10:13:08;;;;;;;35.10;21.40;;;;;;;-2.26;100.00;102182.09;104948;1256;61734;-56
2024/01/22 10:15:35;;;;;;;41.40;30.30;;;;;;;-2.23;100.00;102176.61;105009;1254;72653;-55
2024/01/22 10:18:07;;;;;;;28.50;22.90;;;;;;;-2.21;100.00;102167.87;105105;1257;67985;-56
2024/01/22 10:20:34;;;;;;;18.50;13.00;;;;;;;-2.19;100.00;102170.59;105858;1254;71468;-54
2024/01/22 10:23:01;;;;;;;8.90;7.30;;;;;;;-2.17;100.00;102168.92;105288;1256;61771;-53
2024/01/22 10:25:30;;;;;;;15.10;8.60;;;;;;;-2.15;100.00;102159.01;104885;1252;60520;-54
2024/01/22 10:28:17;;;;;;;16.40;11.20;;;;;;;-2.11;100.00;102158.64;104913;1254;72595;-54
2024/01/22 10:30:46;;;;;;;30.00;18.70;;;;;;;-2.04;100.00;102153.99;105176;1254;65979;-53
2024/01/22 10:33:15;;;;;;;24.90;16.80;;;;;;;-1.99;100.00;102148.77;105793;1256;71479;-54
2024/01/22 10:35:43;;;;;;;8.70;5.70;;;;;;;-1.94;100.00;102139.98;104966;1257;60437;-56
2024/01/22 10:38:16;;;;;;;10.70;7.30;;;;;;;-1.91;100.00;102137.12;105857;1254;62354;-54
2024/01/22 10:40:45;;;;;;;12.30;7.40;;;;;;;-1.89;100.00;102141.59;105877;1254;72654;-54
2024/01/22 10:43:30;;;;;;;12.60;8.10;;;;;;;-1.87;100.00;102135.86;105083;1257;69235;-54
2024/01/22 10:45:58;;;;;;;10.20;7.80;;;;;;;-1.84;100.00;102132.79;105714;1254;71400;-53
2024/01/22 10:48:28;;;;;;;9.90;5.90;;;;;;;-1.82;100.00;102138.52;105121;1256;60523;-55
2024/01/22 10:51:10;;;;;;;8.20;5.00;;;;;;;-1.82;100.00;102139.75;105108;1257;60353;-54
2024/01/22 10:53:39;;;;;;;6.90;3.90;;;;;;;-1.82;100.00;102142.73;105134;1257;74816;-54
2024/01/22 10:56:12;;;;;;;9.90;5.50;;;;;;;-1.80;100.00;102138.42;105284;1253;65759;-54
2024/01/22 10:58:42;;;;;;;82.40;38.00;;;;;;;-1.80;100.00;102131.92;104924;1257;71505;-54
2024/01/22 11:01:16;;;;;;;35.30;22.60;;;;;;;-1.79;100.00;102130.55;105109;1253;60868;-55
2024/01/22 11:03:46;;;;;;;61.20;40.60;;;;;;;-1.76;100.00;102123.77;105195;1256;60977;-54
2024/01/22 11:06:18;;;;;;;25.00;16.50;;;;;;;-1.77;100.00;102114.24;105240;1254;73873;-54
2024/01/22 11:08:48;;;;;;;31.40;16.20;;;;;;;-1.78;100.00;102113.50;105002;1254;67827;-54
2024/01/22 11:11:19;;;;;;;30.70;15.20;;;;;;;-1.81;100.00;102108.48;105219;1254;72941;-55
2024/01/22 11:13:51;;;;;;;51.60;24.60;;;;;;;-1.84;100.00;102110.27;105319;1254;60405;-54
2024/01/22 11:16:19;;;;;;;67.90;33.90;;;;;;;-1.84;100.00;102106.23;105001;1257;60541;-54